createdAt,value
2017-11-22T00:00:31.772Z,9.74
2017-11-22T00:01:31.785Z,9.64
2017-11-22T00:02:31.525Z,9.74
2017-11-22T00:03:31.814Z,9.77
2017-11-22T00:04:31.556Z,9.8
2017-11-22T00:05:31.569Z,9.61
2017-11-22T00:06:31.853Z,9.77
2017-11-22T00:07:31.869Z,9.76
2017-11-22T00:08:31.885Z,9.72
2017-11-22T00:09:31.899Z,9.77
2017-11-22T00:10:31.640Z,9.68
2017-11-22T00:11:31.388Z,9.77
2017-11-22T00:12:31.672Z,9.73
2017-11-22T00:13:31.952Z,9.76
2017-11-22T00:14:31.701Z,9.66
2017-11-22T00:15:31.713Z,9.79
2017-11-22T00:16:32.000Z,9.8
2017-11-22T00:17:32.012Z,9.8
2017-11-22T00:18:32.023Z,9.74
2017-11-22T00:19:31.772Z,9.64
2017-11-22T00:20:32.054Z,9.84
2017-11-22T00:21:31.795Z,9.77
2017-11-22T00:22:32.083Z,9.76
2017-11-22T00:23:31.833Z,9.74
2017-11-22T00:24:31.842Z,9.68
2017-11-22T00:25:32.128Z,9.66
2017-11-22T00:26:32.149Z,9.61
2017-11-22T00:27:31.931Z,9.74
2017-11-22T00:28:32.172Z,9.65
2017-11-22T00:29:32.194Z,9.76
2017-11-22T00:30:32.199Z,9.77
2017-11-22T00:31:31.942Z,9.76
2017-11-22T00:32:32.226Z,9.73
2017-11-22T00:33:32.244Z,9.74
2017-11-22T00:34:32.258Z,9.76
2017-11-22T00:35:32.268Z,9.69
2017-11-22T00:36:32.025Z,9.73
2017-11-22T00:37:32.302Z,9.66
2017-11-22T00:38:32.044Z,9.79
2017-11-22T00:39:32.351Z,9.8
2017-11-22T00:40:32.070Z,9.68
2017-11-22T00:41:32.087Z,9.76
2017-11-22T00:42:32.099Z,9.73
2017-11-22T00:43:32.392Z,9.72
2017-11-22T00:44:32.401Z,9.69
2017-11-22T00:45:32.144Z,9.76
2017-11-22T00:46:32.157Z,9.62
2017-11-22T00:47:32.467Z,9.72
2017-11-22T00:48:32.455Z,9.66
2017-11-22T00:49:32.201Z,9.77
2017-11-22T00:50:32.221Z,9.77
2017-11-22T00:51:31.961Z,9.76
2017-11-22T00:52:32.535Z,9.73
2017-11-22T00:53:32.257Z,9.68
2017-11-22T00:54:32.563Z,9.73
2017-11-22T00:55:32.555Z,9.76
2017-11-22T00:56:32.575Z,9.68
2017-11-22T00:57:32.584Z,9.76
2017-11-22T00:58:32.608Z,9.79
2017-11-22T00:59:32.351Z,9.76
2017-11-22T01:00:32.636Z,9.79
2017-11-22T01:01:32.646Z,9.66
2017-11-22T01:02:32.657Z,9.68
2017-11-22T01:03:32.674Z,9.77
2017-11-22T01:04:32.685Z,9.69
2017-11-22T01:05:32.707Z,9.69
2017-11-22T01:06:32.719Z,9.74
2017-11-22T01:07:32.732Z,9.69
2017-11-22T01:08:32.472Z,9.72
2017-11-22T01:09:32.797Z,9.73
2017-11-22T01:10:32.501Z,9.73
2017-11-22T01:11:32.517Z,9.69
2017-11-22T01:12:32.798Z,9.73
2017-11-22T01:13:32.825Z,9.68
2017-11-22T01:14:32.828Z,9.68
2017-11-22T01:15:32.844Z,9.66
2017-11-22T01:16:32.862Z,9.65
2017-11-22T01:17:32.877Z,9.69
2017-11-22T01:18:32.889Z,9.76
2017-11-22T01:19:32.907Z,9.69
2017-11-22T01:20:32.913Z,9.68
2017-11-22T01:21:32.929Z,9.69
2017-11-22T01:22:32.671Z,9.68
2017-11-22T01:23:32.958Z,9.73
2017-11-22T01:24:32.703Z,9.69
2017-11-22T01:25:32.986Z,9.77
2017-11-22T01:26:32.999Z,9.8
2017-11-22T01:27:33.026Z,9.69
2017-11-22T01:28:33.027Z,9.64
2017-11-22T01:29:33.046Z,9.68
2017-11-22T01:30:32.787Z,9.68
2017-11-22T01:31:32.797Z,9.77
2017-11-22T01:32:32.813Z,9.68
2017-11-22T01:33:32.835Z,9.74
2017-11-22T01:34:32.842Z,9.69
2017-11-22T01:35:33.129Z,9.83
2017-11-22T01:36:33.154Z,9.66
2017-11-22T01:37:32.887Z,9.74
2017-11-22T01:38:33.178Z,9.69
2017-11-22T01:39:33.201Z,9.72
2017-11-22T01:40:33.204Z,9.66
2017-11-22T01:41:32.943Z,9.77
2017-11-22T01:42:33.227Z,9.74
2017-11-22T01:43:32.978Z,9.74
2017-11-22T01:44:33.312Z,9.66
2017-11-22T01:45:33.288Z,9.69
2017-11-22T01:46:33.013Z,9.74
2017-11-22T01:47:33.045Z,9.66
2017-11-22T01:48:33.050Z,9.62
2017-11-22T01:49:33.331Z,9.65
2017-11-22T01:50:33.352Z,9.65
2017-11-22T01:51:33.355Z,9.69
2017-11-22T01:52:33.093Z,9.69
2017-11-22T01:53:33.372Z,9.69
2017-11-22T01:54:33.391Z,9.69
2017-11-22T01:55:33.408Z,9.66
2017-11-22T01:56:33.412Z,9.73
2017-11-22T01:57:33.170Z,9.68
2017-11-22T01:58:33.463Z,9.69
2017-11-22T01:59:32.920Z,9.68
2017-11-22T02:00:33.207Z,9.64
2017-11-22T02:01:33.224Z,9.69
2017-11-22T02:02:33.513Z,9.64
2017-11-22T02:03:33.523Z,9.68
2017-11-22T02:04:33.546Z,9.66
2017-11-22T02:05:33.552Z,9.76
2017-11-22T02:06:33.563Z,9.68
2017-11-22T02:07:33.039Z,9.65
2017-11-22T02:08:33.328Z,9.68
2017-11-22T02:09:33.606Z,9.83
2017-11-22T02:10:33.668Z,9.74
2017-11-22T02:11:33.633Z,9.69
2017-11-22T02:12:33.661Z,9.64
2017-11-22T02:13:33.390Z,9.64
2017-11-22T02:14:33.676Z,9.73
2017-11-22T02:15:33.424Z,9.66
2017-11-22T02:16:33.715Z,9.66
2017-11-22T02:17:33.769Z,9.66
2017-11-22T02:18:33.482Z,9.66
2017-11-22T02:19:33.752Z,9.68
2017-11-22T02:20:33.762Z,9.68
2017-11-22T02:21:33.776Z,9.64
2017-11-22T02:22:33.530Z,9.72
2017-11-22T02:23:33.817Z,9.66
2017-11-22T02:24:33.833Z,9.66
2017-11-22T02:25:33.839Z,9.66
2017-11-22T02:26:33.854Z,9.68
2017-11-22T02:27:33.865Z,9.65
2017-11-22T02:28:33.613Z,9.68
2017-11-22T02:29:33.622Z,9.73
2017-11-22T02:30:33.909Z,9.77
2017-11-22T02:31:33.660Z,9.69
2017-11-22T02:32:33.933Z,9.69
2017-11-22T02:33:33.961Z,9.69
2017-11-22T02:34:33.984Z,9.72
2017-11-22T02:35:33.978Z,9.72
2017-11-22T02:36:34.001Z,9.69
2017-11-22T02:37:33.736Z,9.68
2017-11-22T02:38:34.023Z,9.69
2017-11-22T02:39:34.057Z,9.68
2017-11-22T02:40:34.058Z,9.69
2017-11-22T02:41:34.060Z,9.66
2017-11-22T02:42:34.086Z,9.69
2017-11-22T02:43:34.109Z,9.69
2017-11-22T02:44:34.112Z,9.72
2017-11-22T02:45:34.124Z,9.73
2017-11-22T02:46:33.866Z,9.64
2017-11-22T02:47:34.169Z,9.69
2017-11-22T02:48:34.167Z,9.66
2017-11-22T02:49:33.910Z,9.74
2017-11-22T02:50:33.927Z,9.64
2017-11-22T02:51:34.215Z,9.69
2017-11-22T02:52:34.111Z,9.69
2017-11-22T02:53:34.233Z,9.62
2017-11-22T02:54:34.260Z,9.65
2017-11-22T02:55:34.278Z,9.69
2017-11-22T02:56:34.054Z,9.68
2017-11-22T02:57:34.025Z,9.68
2017-11-22T02:58:34.306Z,9.68
2017-11-22T02:59:34.340Z,9.68
2017-11-22T03:00:34.345Z,9.68
2017-11-22T03:01:34.086Z,9.69
2017-11-22T03:02:34.093Z,9.66
2017-11-22T03:03:34.392Z,9.73
2017-11-22T03:04:34.393Z,9.69
2017-11-22T03:05:34.137Z,9.69
2017-11-22T03:06:34.148Z,9.68
2017-11-22T03:07:34.432Z,9.69
2017-11-22T03:08:34.448Z,9.68
2017-11-22T03:09:34.471Z,9.73
2017-11-22T03:10:34.480Z,9.69
2017-11-22T03:11:34.951Z,9.65
2017-11-22T03:12:34.520Z,9.72
2017-11-22T03:13:34.512Z,9.69
2017-11-22T03:14:34.532Z,9.62
2017-11-22T03:15:34.278Z,9.68
2017-11-22T03:16:34.559Z,9.65
2017-11-22T03:17:34.583Z,9.69
2017-11-22T03:18:34.591Z,9.69
2017-11-22T03:19:34.339Z,9.73
2017-11-22T03:20:34.346Z,9.65
2017-11-22T03:21:34.361Z,9.68
2017-11-22T03:22:34.425Z,9.69
2017-11-22T03:23:34.390Z,9.61
2017-11-22T03:24:34.681Z,9.69
2017-11-22T03:25:34.701Z,9.64
2017-11-22T03:26:34.705Z,9.66
2017-11-22T03:27:34.461Z,9.66
2017-11-22T03:28:34.838Z,9.69
2017-11-22T03:29:34.645Z,9.72
2017-11-22T03:30:34.300Z,9.72
2017-11-22T03:31:34.889Z,9.73
2017-11-22T03:32:34.811Z,9.73
2017-11-22T03:33:34.803Z,9.69
2017-11-22T03:34:34.839Z,9.64
2017-11-22T03:35:34.836Z,9.72
2017-11-22T03:36:34.853Z,9.74
2017-11-22T03:37:34.886Z,9.69
2017-11-22T03:38:34.888Z,9.65
2017-11-22T03:39:34.686Z,9.68
2017-11-22T03:40:35.075Z,9.65
2017-11-22T03:41:34.660Z,9.72
2017-11-22T03:42:35.044Z,9.73
2017-11-22T03:43:35.035Z,9.65
2017-11-22T03:44:34.763Z,9.65
2017-11-22T03:45:34.435Z,9.65
2017-11-22T03:46:34.993Z,9.64
2017-11-22T03:47:35.005Z,9.66
2017-11-22T03:48:35.021Z,9.65
2017-11-22T03:49:35.034Z,9.62
2017-11-22T03:50:35.180Z,9.72
2017-11-22T03:51:34.887Z,9.68
2017-11-22T03:52:35.079Z,9.72
2017-11-22T03:53:34.823Z,9.61
2017-11-22T03:54:35.138Z,9.69
2017-11-22T03:55:35.125Z,9.68
2017-11-22T03:56:34.591Z,9.66
2017-11-22T03:57:34.922Z,9.68
2017-11-22T03:58:34.888Z,9.68
2017-11-22T03:59:35.182Z,9.69
2017-11-22T04:00:35.193Z,9.69
2017-11-22T04:01:35.201Z,9.65
2017-11-22T04:02:35.229Z,9.64
2017-11-22T04:03:35.239Z,9.69
2017-11-22T04:04:34.977Z,9.69
2017-11-22T04:05:35.409Z,9.64
2017-11-22T04:06:35.277Z,9.72
2017-11-22T04:07:35.325Z,9.69
2017-11-22T04:08:35.306Z,9.66
2017-11-22T04:09:35.046Z,9.72
2017-11-22T04:10:35.361Z,9.65
2017-11-22T04:11:35.359Z,9.69
2017-11-22T04:12:35.405Z,9.66
2017-11-22T04:13:35.110Z,9.69
2017-11-22T04:14:35.401Z,9.69
2017-11-22T04:15:35.138Z,9.72
2017-11-22T04:16:35.426Z,9.69
2017-11-22T04:17:35.432Z,9.74
2017-11-22T04:18:35.461Z,9.66
2017-11-22T04:19:35.499Z,9.72
2017-11-22T04:20:35.224Z,9.73
2017-11-22T04:21:35.219Z,9.62
2017-11-22T04:22:35.236Z,9.69
2017-11-22T04:23:35.588Z,9.73
2017-11-22T04:24:35.397Z,9.65
2017-11-22T04:25:35.555Z,9.66
2017-11-22T04:26:35.574Z,9.68
2017-11-22T04:27:35.576Z,9.69
2017-11-22T04:28:35.324Z,9.72
2017-11-22T04:29:35.329Z,9.64
2017-11-22T04:30:35.628Z,9.68
2017-11-22T04:31:35.360Z,9.55
2017-11-22T04:32:35.133Z,9.61
2017-11-22T04:33:35.668Z,9.61
2017-11-22T04:34:35.690Z,9.64
2017-11-22T04:35:35.701Z,9.55
2017-11-22T04:36:35.430Z,9.66
2017-11-22T04:37:35.891Z,9.61
2017-11-22T04:38:35.733Z,9.61
2017-11-22T04:39:35.476Z,9.55
2017-11-22T04:40:35.896Z,9.59
2017-11-22T04:41:35.781Z,9.58
2017-11-22T04:42:35.796Z,9.58
2017-11-22T04:43:35.802Z,9.58
2017-11-22T04:44:35.825Z,9.55
2017-11-22T04:45:35.830Z,9.62
2017-11-22T04:46:35.861Z,9.56
2017-11-22T04:47:35.591Z,9.58
2017-11-22T04:48:35.881Z,9.54
2017-11-22T04:49:35.884Z,9.55
2017-11-22T04:50:35.908Z,9.58
2017-11-22T04:51:35.920Z,9.54
2017-11-22T04:52:35.663Z,9.58
2017-11-22T04:53:35.944Z,9.62
2017-11-22T04:54:35.696Z,9.56
2017-11-22T04:55:35.970Z,9.58
2017-11-22T04:56:36.007Z,9.64
2017-11-22T04:57:36.006Z,9.56
2017-11-22T04:58:35.743Z,9.61
2017-11-22T04:59:35.760Z,9.62
2017-11-22T05:00:36.066Z,9.59
2017-11-22T05:01:36.077Z,9.54
2017-11-22T05:02:35.802Z,9.54
2017-11-22T05:03:36.093Z,9.54
2017-11-22T05:04:36.100Z,9.58
2017-11-22T05:05:36.114Z,9.56
2017-11-22T05:06:36.138Z,9.56
2017-11-22T05:07:36.140Z,9.59
2017-11-22T05:08:35.889Z,9.59
2017-11-22T05:09:35.900Z,9.62
2017-11-22T05:10:36.211Z,9.59
2017-11-22T05:11:36.623Z,9.56
2017-11-22T05:12:35.950Z,9.61
2017-11-22T05:13:35.977Z,9.47
2017-11-22T05:14:36.251Z,9.54
2017-11-22T05:15:35.994Z,9.59
2017-11-22T05:16:36.266Z,9.56
2017-11-22T05:17:36.291Z,9.5
2017-11-22T05:18:36.299Z,9.5
2017-11-22T05:19:36.313Z,9.54
2017-11-22T05:20:36.330Z,9.44
2017-11-22T05:21:36.344Z,9.5
2017-11-22T05:22:36.360Z,9.54
2017-11-22T05:23:36.100Z,9.46
2017-11-22T05:24:36.395Z,9.44
2017-11-22T05:25:36.411Z,9.5
2017-11-22T05:26:36.146Z,9.5
2017-11-22T05:27:36.436Z,9.5
2017-11-22T05:28:36.442Z,9.44
2017-11-22T05:29:36.456Z,9.41
2017-11-22T05:30:36.473Z,9.43
2017-11-22T05:31:36.213Z,9.4
2017-11-22T05:32:36.498Z,9.47
2017-11-22T05:33:36.245Z,9.46
2017-11-22T05:34:36.522Z,9.43
2017-11-22T05:35:36.275Z,9.44
2017-11-22T05:36:36.552Z,9.41
2017-11-22T05:37:36.576Z,9.48
2017-11-22T05:38:36.586Z,9.43
2017-11-22T05:39:36.597Z,9.43
2017-11-22T05:40:36.719Z,9.41
2017-11-22T05:41:36.645Z,9.43
2017-11-22T05:42:36.639Z,9.44
2017-11-22T05:43:36.668Z,9.41
2017-11-22T05:44:36.669Z,9.41
2017-11-22T05:45:36.684Z,9.44
2017-11-22T05:46:36.698Z,9.43
2017-11-22T05:47:36.733Z,9.44
2017-11-22T05:48:36.462Z,9.46
2017-11-22T05:49:36.481Z,9.47
2017-11-22T05:50:36.763Z,9.47
2017-11-22T05:51:36.498Z,9.46
2017-11-22T05:52:36.778Z,9.46
2017-11-22T05:53:36.822Z,9.47
2017-11-22T05:54:36.807Z,9.39
2017-11-22T05:55:36.842Z,9.47
2017-11-22T05:56:36.861Z,9.46
2017-11-22T05:57:36.854Z,9.47
2017-11-22T05:58:36.864Z,9.43
2017-11-22T05:59:36.885Z,9.4
2017-11-22T06:00:36.622Z,9.46
2017-11-22T06:01:36.914Z,9.43
2017-11-22T06:02:36.381Z,9.34
2017-11-22T06:03:36.399Z,9.37
2017-11-22T06:04:36.420Z,9.37
2017-11-22T06:05:36.699Z,9.4
2017-11-22T06:06:36.980Z,9.39
2017-11-22T06:07:36.996Z,9.39
2017-11-22T06:08:37.007Z,9.4
2017-11-22T06:09:37.028Z,9.37
2017-11-22T06:10:37.053Z,9.32
2017-11-22T06:11:37.059Z,9.44
2017-11-22T06:12:36.793Z,9.39
2017-11-22T06:13:37.079Z,9.32
2017-11-22T06:14:37.125Z,9.34
2017-11-22T06:15:36.840Z,9.39
2017-11-22T06:16:37.131Z,9.34
2017-11-22T06:17:36.867Z,9.4
2017-11-22T06:18:37.150Z,9.41
2017-11-22T06:19:37.166Z,9.39
2017-11-22T06:20:36.908Z,9.36
2017-11-22T06:21:36.922Z,9.34
2017-11-22T06:22:37.216Z,9.37
2017-11-22T06:23:37.231Z,9.36
2017-11-22T06:24:37.240Z,9.36
2017-11-22T06:25:37.266Z,9.34
2017-11-22T06:26:37.256Z,9.43
2017-11-22T06:27:37.274Z,9.39
2017-11-22T06:28:37.024Z,9.44
2017-11-22T06:29:37.308Z,9.44
2017-11-22T06:30:37.317Z,9.44
2017-11-22T06:31:37.060Z,9.41
2017-11-22T06:32:37.358Z,9.43
2017-11-22T06:33:37.085Z,9.41
2017-11-22T06:34:37.378Z,9.4
2017-11-22T06:35:37.386Z,9.37
2017-11-22T06:36:37.413Z,9.34
2017-11-22T06:37:37.148Z,9.4
2017-11-22T06:38:37.160Z,9.4
2017-11-22T06:39:37.450Z,9.46
2017-11-22T06:40:37.460Z,9.46
2017-11-22T06:41:37.483Z,9.41
2017-11-22T06:42:37.216Z,9.43
2017-11-22T06:43:37.500Z,9.46
2017-11-22T06:44:37.245Z,9.44
2017-11-22T06:45:37.260Z,9.39
2017-11-22T06:46:37.553Z,9.46
2017-11-22T06:47:37.292Z,9.44
2017-11-22T06:48:37.299Z,9.39
2017-11-22T06:49:37.609Z,9.44
2017-11-22T06:50:37.599Z,9.47
2017-11-22T06:51:37.626Z,9.46
2017-11-22T06:52:37.663Z,9.46
2017-11-22T06:53:37.642Z,9.48
2017-11-22T06:54:37.385Z,9.4
2017-11-22T06:55:37.403Z,9.44
2017-11-22T06:56:37.420Z,9.44
2017-11-22T06:57:37.703Z,9.41
2017-11-22T06:58:37.716Z,9.39
2017-11-22T06:59:37.732Z,9.4
2017-11-22T07:00:37.737Z,9.43
2017-11-22T07:01:37.754Z,9.47
2017-11-22T07:02:37.778Z,9.41
2017-11-22T07:03:37.786Z,9.44
2017-11-22T07:04:37.802Z,9.34
2017-11-22T07:05:37.812Z,9.4
2017-11-22T07:06:37.828Z,9.44
2017-11-22T07:07:37.845Z,9.51
2017-11-22T07:08:37.856Z,9.44
2017-11-22T07:09:37.871Z,9.47
2017-11-22T07:10:37.877Z,9.4
2017-11-22T07:11:37.897Z,9.43
2017-11-22T07:12:37.911Z,9.46
2017-11-22T07:13:37.980Z,9.48
2017-11-22T07:14:37.395Z,9.46
2017-11-22T07:15:37.684Z,9.4
2017-11-22T07:16:37.966Z,9.47
2017-11-22T07:17:37.977Z,9.46
2017-11-22T07:18:37.722Z,9.44
2017-11-22T07:19:37.749Z,9.39
2017-11-22T07:20:38.029Z,9.46
2017-11-22T07:21:38.045Z,9.5
2017-11-22T07:22:38.050Z,9.48
2017-11-22T07:23:38.066Z,9.46
2017-11-22T07:24:38.081Z,9.44
2017-11-22T07:25:37.826Z,9.48
2017-11-22T07:26:38.109Z,9.44
2017-11-22T07:27:37.856Z,9.47
2017-11-22T07:28:38.187Z,9.41
2017-11-22T07:29:38.151Z,9.41
2017-11-22T07:30:38.177Z,9.41
2017-11-22T07:31:38.179Z,9.46
2017-11-22T07:32:38.194Z,9.43
2017-11-22T07:33:37.931Z,9.43
2017-11-22T07:34:37.952Z,9.47
2017-11-22T07:35:37.970Z,9.51
2017-11-22T07:36:37.986Z,9.47
2017-11-22T07:37:38.006Z,9.46
2017-11-22T07:38:38.008Z,9.54
2017-11-22T07:39:38.025Z,9.51
2017-11-22T07:40:38.031Z,9.48
2017-11-22T07:41:38.089Z,9.56
2017-11-22T07:42:38.066Z,9.56
2017-11-22T07:43:38.078Z,9.62
2017-11-22T07:44:38.096Z,9.56
2017-11-22T07:45:38.371Z,9.61
2017-11-22T07:46:38.124Z,9.5
2017-11-22T07:47:38.131Z,9.65
2017-11-22T07:48:38.418Z,9.62
2017-11-22T07:49:38.452Z,9.59
2017-11-22T07:50:38.464Z,9.65
2017-11-22T07:51:38.194Z,9.69
2017-11-22T07:52:38.481Z,9.66
2017-11-22T07:53:38.499Z,9.68
2017-11-22T07:54:38.517Z,9.73
2017-11-22T07:55:38.518Z,9.68
2017-11-22T07:56:38.536Z,9.69
2017-11-22T07:57:38.283Z,9.69
2017-11-22T07:58:38.033Z,9.66
2017-11-22T07:59:38.586Z,9.69
2017-11-22T08:00:38.321Z,9.68
2017-11-22T08:01:38.610Z,9.79
2017-11-22T08:02:38.620Z,9.72
2017-11-22T08:03:38.628Z,9.72
2017-11-22T08:04:38.374Z,9.68
2017-11-22T08:05:38.664Z,9.65
2017-11-22T08:06:38.677Z,9.73
2017-11-22T08:07:38.687Z,9.72
2017-11-22T08:08:38.702Z,9.69
2017-11-22T08:09:38.745Z,9.72
2017-11-22T08:10:38.463Z,9.79
2017-11-22T08:11:38.749Z,9.72
2017-11-22T08:12:38.489Z,9.76
2017-11-22T08:13:38.770Z,9.73
2017-11-22T08:14:38.525Z,9.79
2017-11-22T08:15:38.802Z,9.73
2017-11-22T08:16:38.291Z,9.8
2017-11-22T08:17:38.828Z,9.77
2017-11-22T08:18:38.850Z,9.76
2017-11-22T08:19:38.613Z,9.79
2017-11-22T08:20:38.892Z,9.8
2017-11-22T08:21:38.896Z,9.74
2017-11-22T08:22:38.951Z,9.84
2017-11-22T08:23:38.932Z,9.8
2017-11-22T08:24:38.936Z,9.8
2017-11-22T08:25:38.948Z,9.83
2017-11-22T08:26:38.965Z,9.86
2017-11-22T08:27:38.702Z,9.79
2017-11-22T08:28:38.986Z,9.84
2017-11-22T08:29:39.003Z,9.84
2017-11-22T08:30:38.775Z,9.84
2017-11-22T08:31:38.767Z,9.89
2017-11-22T08:32:38.772Z,9.83
2017-11-22T08:33:38.787Z,9.82
2017-11-22T08:34:39.076Z,9.87
2017-11-22T08:35:39.087Z,9.87
2017-11-22T08:36:39.114Z,9.79
2017-11-22T08:37:39.136Z,9.83
2017-11-22T08:38:38.865Z,9.86
2017-11-22T08:39:39.148Z,9.91
2017-11-22T08:40:39.158Z,9.89
2017-11-22T08:41:38.907Z,9.87
2017-11-22T08:42:39.193Z,9.89
2017-11-22T08:43:39.200Z,9.87
2017-11-22T08:44:39.221Z,9.91
2017-11-22T08:45:38.959Z,9.91
2017-11-22T08:46:39.250Z,9.98
2017-11-22T08:47:38.993Z,9.91
2017-11-22T08:48:38.746Z,9.92
2017-11-22T08:49:39.286Z,9.91
2017-11-22T08:50:39.325Z,9.91
2017-11-22T08:51:39.318Z,9.92
2017-11-22T08:52:39.337Z,9.98
2017-11-22T08:53:39.363Z,9.92
2017-11-22T08:54:39.374Z,9.86
2017-11-22T08:55:39.382Z,9.98
2017-11-22T08:56:39.393Z,9.94
2017-11-22T08:57:39.133Z,9.86
2017-11-22T08:58:39.423Z,9.92
2017-11-22T08:59:39.452Z,9.92
2017-11-22T09:00:39.445Z,9.94
2017-11-22T09:01:39.465Z,9.95
2017-11-22T09:02:38.940Z,9.97
2017-11-22T09:03:39.222Z,9.94
2017-11-22T09:04:39.231Z,9.99
2017-11-22T09:05:39.526Z,10.16
2017-11-22T09:06:39.536Z,10.09
2017-11-22T09:07:39.553Z,10.15
2017-11-22T09:08:39.571Z,10.13
2017-11-22T09:09:39.315Z,10.07
2017-11-22T09:10:39.594Z,10.09
2017-11-22T09:11:39.612Z,10.15
2017-11-22T09:12:39.620Z,10.09
2017-11-22T09:13:39.642Z,10.12
2017-11-22T09:14:39.645Z,10.05
2017-11-22T09:15:39.671Z,10.09
2017-11-22T09:16:39.687Z,10.15
2017-11-22T09:17:39.725Z,10.16
2017-11-22T09:18:39.709Z,10.16
2017-11-22T09:19:39.724Z,10.15
2017-11-22T09:20:39.742Z,10.15
2017-11-22T09:21:39.751Z,10.15
2017-11-22T09:22:39.767Z,10.2
2017-11-22T09:23:39.517Z,10.15
2017-11-22T09:24:39.523Z,10.12
2017-11-22T09:25:39.824Z,10.15
2017-11-22T09:26:39.824Z,10.17
2017-11-22T09:27:39.837Z,10.16
2017-11-22T09:28:39.917Z,10.19
2017-11-22T09:29:39.911Z,10.19
2017-11-22T09:30:39.892Z,10.26
2017-11-22T09:31:39.906Z,10.16
2017-11-22T09:32:39.915Z,10.28
2017-11-22T09:33:39.658Z,10.23
2017-11-22T09:34:39.947Z,10.23
2017-11-22T09:35:39.961Z,10.23
2017-11-22T09:36:39.989Z,10.25
2017-11-22T09:37:40.007Z,10.23
2017-11-22T09:38:40.009Z,10.3
2017-11-22T09:39:40.012Z,10.22
2017-11-22T09:40:40.027Z,10.33
2017-11-22T09:41:39.507Z,10.25
2017-11-22T09:42:39.794Z,10.26
2017-11-22T09:43:40.092Z,10.25
2017-11-22T09:44:40.102Z,10.26
2017-11-22T09:45:40.106Z,10.25
2017-11-22T09:46:40.122Z,10.25
2017-11-22T09:47:39.892Z,10.28
2017-11-22T09:48:40.147Z,10.31
2017-11-22T09:49:39.905Z,10.31
2017-11-22T09:50:40.188Z,10.34
2017-11-22T09:51:40.198Z,10.26
2017-11-22T09:52:39.932Z,10.25
2017-11-22T09:53:40.225Z,10.31
2017-11-22T09:54:40.241Z,10.4
2017-11-22T09:55:40.257Z,10.4
2017-11-22T09:56:40.267Z,10.34
2017-11-22T09:57:40.287Z,10.4
2017-11-22T09:58:39.752Z,10.44
2017-11-22T09:59:40.308Z,10.4
2017-11-22T10:00:40.343Z,10.44
2017-11-22T10:01:40.338Z,10.44
2017-11-22T10:02:40.384Z,10.4
2017-11-22T10:03:40.383Z,10.48
2017-11-22T10:04:40.382Z,10.46
2017-11-22T10:05:40.404Z,10.48
2017-11-22T10:06:40.434Z,10.51
2017-11-22T10:07:40.432Z,10.53
2017-11-22T10:08:40.462Z,10.54
2017-11-22T10:09:40.198Z,10.56
2017-11-22T10:10:40.220Z,10.54
2017-11-22T10:11:40.494Z,10.57
2017-11-22T10:12:40.517Z,10.61
2017-11-22T10:13:40.520Z,10.61
2017-11-22T10:14:40.533Z,10.59
2017-11-22T10:15:40.297Z,10.64
2017-11-22T10:16:40.297Z,10.67
2017-11-22T10:17:40.588Z,10.64
2017-11-22T10:18:40.319Z,10.64
2017-11-22T10:19:40.626Z,10.74
2017-11-22T10:20:40.358Z,10.72
2017-11-22T10:21:40.378Z,10.67
2017-11-22T10:22:40.652Z,10.69
2017-11-22T10:23:40.678Z,10.75
2017-11-22T10:24:40.690Z,10.78
2017-11-22T10:25:40.703Z,10.72
2017-11-22T10:26:40.442Z,10.74
2017-11-22T10:27:40.746Z,10.75
2017-11-22T10:28:40.206Z,10.78
2017-11-22T10:29:40.227Z,10.74
2017-11-22T10:30:40.503Z,10.76
2017-11-22T10:31:40.789Z,10.74
2017-11-22T10:32:40.811Z,10.75
2017-11-22T10:33:40.822Z,10.75
2017-11-22T10:34:40.567Z,10.81
2017-11-22T10:35:40.584Z,10.81
2017-11-22T10:36:40.597Z,10.78
2017-11-22T10:37:40.610Z,10.78
2017-11-22T10:38:40.628Z,10.76
2017-11-22T10:39:40.640Z,10.76
2017-11-22T10:40:40.652Z,10.79
2017-11-22T10:41:40.675Z,10.81
2017-11-22T10:42:40.682Z,10.71
2017-11-22T10:43:40.973Z,10.87
2017-11-22T10:44:40.991Z,10.74
2017-11-22T10:45:41.008Z,10.89
2017-11-22T10:46:40.749Z,10.79
2017-11-22T10:47:41.042Z,10.84
2017-11-22T10:48:41.100Z,10.78
2017-11-22T10:49:40.791Z,10.78
2017-11-22T10:50:41.099Z,10.89
2017-11-22T10:51:41.093Z,10.82
2017-11-22T10:52:41.107Z,10.92
2017-11-22T10:53:41.120Z,10.87
2017-11-22T10:54:41.134Z,10.87
2017-11-22T10:55:40.884Z,10.92
2017-11-22T10:56:41.163Z,10.9
2017-11-22T10:57:40.912Z,10.97
2017-11-22T10:58:40.653Z,10.96
2017-11-22T10:59:41.216Z,10.99
2017-11-22T11:00:41.231Z,10.94
2017-11-22T11:01:41.245Z,10.93
2017-11-22T11:02:40.985Z,10.92
2017-11-22T11:03:41.278Z,10.97
2017-11-22T11:04:41.015Z,10.99
2017-11-22T11:05:41.033Z,11.02
2017-11-22T11:06:41.049Z,11.08
2017-11-22T11:07:41.352Z,11.05
2017-11-22T11:08:41.360Z,11.1
2017-11-22T11:09:41.364Z,11.08
2017-11-22T11:10:41.381Z,11.1
2017-11-22T11:11:41.395Z,11.15
2017-11-22T11:12:41.406Z,11.19
2017-11-22T11:13:41.158Z,11.17
2017-11-22T11:14:41.451Z,11.11
2017-11-22T11:15:40.915Z,11.19
2017-11-22T11:16:41.485Z,11.22
2017-11-22T11:17:41.218Z,11.25
2017-11-22T11:18:40.967Z,11.25
2017-11-22T11:19:41.516Z,11.22
2017-11-22T11:20:41.267Z,11.29
2017-11-22T11:21:41.553Z,11.25
2017-11-22T11:22:41.575Z,11.26
2017-11-22T11:23:41.581Z,11.3
2017-11-22T11:24:41.592Z,11.29
2017-11-22T11:25:41.342Z,11.37
2017-11-22T11:26:41.087Z,11.37
2017-11-22T11:27:41.376Z,11.3
2017-11-22T11:28:41.658Z,11.4
2017-11-22T11:29:41.128Z,11.4
2017-11-22T11:30:41.420Z,11.45
2017-11-22T11:31:41.704Z,11.45
2017-11-22T11:32:41.448Z,11.43
2017-11-22T11:33:41.462Z,11.45
2017-11-22T11:34:41.509Z,11.48
2017-11-22T11:35:41.497Z,11.47
2017-11-22T11:36:41.789Z,11.54
2017-11-22T11:37:41.799Z,11.47
2017-11-22T11:38:41.813Z,11.52
2017-11-22T11:39:41.831Z,11.5
2017-11-22T11:40:41.903Z,11.5
2017-11-22T11:41:41.857Z,11.54
2017-11-22T11:42:41.601Z,11.52
2017-11-22T11:43:41.892Z,11.6
2017-11-22T11:44:41.907Z,11.62
2017-11-22T11:45:41.921Z,11.63
2017-11-22T11:46:41.675Z,11.57
2017-11-22T11:47:41.968Z,11.55
2017-11-22T11:48:41.983Z,11.65
2017-11-22T11:49:41.987Z,11.62
2017-11-22T11:50:42.005Z,11.63
2017-11-22T11:51:41.746Z,11.68
2017-11-22T11:52:42.039Z,11.66
2017-11-22T11:53:42.056Z,11.66
2017-11-22T11:54:42.072Z,11.69
2017-11-22T11:55:42.078Z,11.7
2017-11-22T11:56:41.832Z,11.66
2017-11-22T11:57:41.840Z,11.75
2017-11-22T11:58:42.136Z,11.77
2017-11-22T11:59:41.885Z,11.7
2017-11-22T12:00:41.889Z,11.66
2017-11-22T12:01:42.174Z,11.72
2017-11-22T12:02:42.195Z,11.72
2017-11-22T12:03:42.207Z,11.72
2017-11-22T12:04:42.218Z,11.65
2017-11-22T12:05:41.698Z,11.72
2017-11-22T12:06:42.304Z,11.77
2017-11-22T12:07:42.264Z,11.7
2017-11-22T12:08:42.287Z,11.62
2017-11-22T12:09:42.026Z,11.63
2017-11-22T12:10:42.047Z,11.65
2017-11-22T12:11:42.331Z,11.68
2017-11-22T12:12:42.350Z,11.68
2017-11-22T12:13:42.364Z,11.68
2017-11-22T12:14:42.382Z,11.66
2017-11-22T12:15:42.389Z,11.65
2017-11-22T12:16:42.147Z,11.65
2017-11-22T12:17:42.425Z,11.63
2017-11-22T12:18:42.451Z,11.63
2017-11-22T12:19:42.458Z,11.65
2017-11-22T12:20:42.478Z,11.6
2017-11-22T12:21:42.506Z,11.66
2017-11-22T12:22:42.507Z,11.65
2017-11-22T12:23:42.555Z,11.68
2017-11-22T12:24:42.270Z,11.69
2017-11-22T12:25:42.553Z,11.66
2017-11-22T12:26:42.321Z,11.65
2017-11-22T12:27:42.316Z,11.66
2017-11-22T12:28:42.612Z,11.66
2017-11-22T12:29:42.356Z,11.77
2017-11-22T12:30:42.099Z,11.69
2017-11-22T12:31:42.646Z,11.7
2017-11-22T12:32:42.398Z,11.68
2017-11-22T12:33:42.679Z,11.73
2017-11-22T12:34:42.701Z,11.63
2017-11-22T12:35:42.444Z,11.7
2017-11-22T12:36:42.728Z,11.68
2017-11-22T12:37:42.756Z,11.75
2017-11-22T12:38:42.492Z,11.68
2017-11-22T12:39:42.781Z,11.72
2017-11-22T12:40:42.791Z,11.73
2017-11-22T12:41:42.808Z,11.63
2017-11-22T12:42:42.834Z,11.75
2017-11-22T12:43:42.859Z,11.69
2017-11-22T12:44:42.611Z,11.6
2017-11-22T12:45:42.881Z,11.7
2017-11-22T12:46:42.624Z,11.73
2017-11-22T12:47:42.630Z,11.68
2017-11-22T12:48:42.921Z,11.69
2017-11-22T12:49:42.669Z,11.75
2017-11-22T12:50:42.948Z,11.72
2017-11-22T12:51:42.425Z,11.62
2017-11-22T12:52:42.982Z,11.7
2017-11-22T12:53:42.995Z,11.8
2017-11-22T12:54:43.027Z,11.78
2017-11-22T12:55:43.031Z,11.73
2017-11-22T12:56:42.791Z,11.78
2017-11-22T12:57:43.073Z,11.75
2017-11-22T12:58:43.072Z,11.78
2017-11-22T12:59:43.102Z,11.72
2017-11-22T13:00:42.567Z,11.75
2017-11-22T13:01:43.136Z,11.75
2017-11-22T13:02:42.599Z,11.83
2017-11-22T13:03:42.897Z,11.78
2017-11-22T13:04:42.901Z,11.77
2017-11-22T13:05:42.922Z,11.77
2017-11-22T13:06:43.200Z,11.68
2017-11-22T13:07:42.956Z,11.73
2017-11-22T13:08:42.969Z,11.83
2017-11-22T13:09:43.256Z,11.8
2017-11-22T13:10:43.000Z,11.7
2017-11-22T13:11:43.290Z,11.8
2017-11-22T13:12:43.305Z,11.83